WESTPORT MEDIA Westport In The Media

Enter your "Place, State", US Zip Code or ICAO:  

Nassau Airport, Bahamas

 Lat: 25.05N, Lon: 77.47W
ICAO Used: MYNN
Current Conditions
Updated: 1:00 PM GMT-5 TUE SEP 23 2014
Sun & Moon Information
Thunder
Thunder
Temp: 29°C
Humidity: 79%
Wind Speed: N 12 MPH
Barometer: 1016 mb
Dewpoint: 25°C
Heat Index: 34°C
Wind Chill: 29°C
Civil Twilight: 5:35 AM GMT-5 Moon Phase:
New Moon
Sunrise: 5:58 AM GMT-5
Sunset: 6:05 PM GMT-5
Civil Twilight: 6:28 PM GMT-5
Forecast for Nassau Airport, Bahamas:
(Forecast based on TAF for )
0700 PM GMT-5 MON SEP 22 2014
  
MORNING AFTERNOON EVENING OVERNIGHT
Fair Fair Fair Fair
ZoneCast:
Dated: 0700 PM GMT-5 MON SEP 22 2014
Morning...Becoming fair with winds from the southeast at 12 mph.

Afternoon...Fair with winds from the southeast at 12 mph.

Evening...Fair with winds from the southeast at 12 mph.

Overnight...Fair with winds from the southeast at 12 mph.

Original Encoded TAF:
Dated: 0700 PM GMT-5 MON SEP 22 2014
MYNN 222200Z 2300/2400 12004KT 9999 VCSH FEW015CB 
     PROB30 
     TEMPO 2302/2306 12004G20KT 6000 TSRA SCT015 BKN030 
     BECMG 2312/2314 12010KT 
     PROB30 
     TEMPO 2318/2400 12010G20KT 4800 BKN015CB BKN030